Time;durP1;ratioP1;P1;durP2;ratioP2;P2;SDS_P1;SDS_P2;PMS_P1;PMS_P2;Temp;Humidity;BMP_temperature;BMP_pressure;BME280_temperature;BME280_humidity;BME280_pressure;Samples;Min_cycle;Max_cycle;Signal;HPM_P1;HPM_P2
2021/04/01 00:01:57;;;;;;;32.78;19.20;;;;;;;11.29;41.33;95275.00;4983845;28;20039;-82
2021/04/01 00:04:23;;;;;;;37.35;19.42;;;;;;;11.30;41.83;95266.97;4967657;28;20495;-82
2021/04/01 00:06:48;;;;;;;58.33;26.38;;;;;;;11.31;41.85;95273.78;4950067;28;20023;-81
2021/04/01 00:09:14;;;;;;;68.78;31.98;;;;;;;11.27;41.84;95274.44;4982166;28;20093;-81
2021/04/01 00:11:39;;;;;;;63.42;29.88;;;;;;;11.30;41.47;95268.78;4993807;28;20038;-80
2021/04/01 00:14:05;;;;;;;42.58;23.02;;;;;;;11.23;41.61;95258.50;4983269;28;20637;-80
2021/04/01 00:16:34;;;;;;;37.45;20.27;;;;;;;11.33;40.93;95256.09;4966851;28;20027;-80
2021/04/01 00:19:00;;;;;;;31.25;18.58;;;;;;;11.33;41.49;95248.28;4982725;28;20026;-82
2021/04/01 00:21:25;;;;;;;36.55;17.33;;;;;;;11.33;40.96;95245.69;4982465;28;20043;-83
2021/04/01 00:23:51;;;;;;;31.60;19.65;;;;;;;11.30;41.55;95240.16;4977204;23;20090;-82
2021/04/01 00:26:16;;;;;;;35.95;19.25;;;;;;;11.35;41.38;95246.25;4976183;28;20034;-81
2021/04/01 00:28:42;;;;;;;33.40;19.80;;;;;;;11.32;40.92;95240.72;5005974;23;20504;-81
2021/04/01 00:31:07;;;;;;;45.90;22.60;;;;;;;11.27;42.10;95238.00;4946032;29;20066;-82
2021/04/01 00:33:33;;;;;;;42.53;23.00;;;;;;;11.31;42.26;95239.13;4932755;29;20051;-81
2021/04/01 00:36:02;;;;;;;44.72;23.88;;;;;;;11.32;42.03;95241.50;4933208;29;20055;-80
2021/04/01 00:38:27;;;;;;;49.05;23.65;;;;;;;11.36;41.96;95228.81;4947025;29;20103;-81
2021/04/01 00:40:53;;;;;;;45.45;24.80;;;;;;;11.38;41.89;95232.78;4945568;29;20042;-81
2021/04/01 00:43:18;;;;;;;47.80;25.33;;;;;;;11.39;41.75;95223.19;4930119;29;20057;-81
2021/04/01 00:45:44;;;;;;;67.75;31.83;;;;;;;11.20;42.11;95217.25;4919774;29;20041;-79
2021/04/01 00:48:10;;;;;;;60.15;34.47;;;;;;;11.24;41.92;95207.22;4954148;28;20027;-79
2021/04/01 00:50:38;;;;;;;59.47;27.35;;;;;;;11.13;42.44;95203.59;4954880;29;20036;-79
2021/04/01 00:53:04;;;;;;;50.72;24.40;;;;;;;11.24;41.62;95205.41;4945323;29;20515;-80
2021/04/01 00:55:29;;;;;;;47.28;21.15;;;;;;;11.30;41.42;95201.88;4925756;29;20032;-81
2021/04/01 00:57:56;;;;;;;52.33;25.60;;;;;;;11.31;41.60;95194.88;4929758;29;20042;-81
2021/04/01 01:00:27;;;;;;;56.53;24.65;;;;;;;11.29;41.40;95194.31;4928848;29;20058;-80
2021/04/01 01:02:53;;;;;;;62.08;24.80;;;;;;;11.22;40.93;95193.63;4948841;29;20031;-81
2021/04/01 01:05:19;;;;;;;50.88;22.92;;;;;;;11.29;40.66;95183.91;4932181;29;20035;-80
2021/04/01 01:07:44;;;;;;;34.45;20.55;;;;;;;11.25;41.33;95186.16;4953092;28;20123;-83
2021/04/01 01:10:16;;;;;;;31.83;18.25;;;;;;;11.34;40.68;95184.00;4901000;29;20039;-82
2021/04/01 01:12:41;;;;;;;36.78;18.80;;;;;;;11.32;41.03;95179.03;5000722;23;20047;-83
2021/04/01 01:15:08;;;;;;;34.05;19.05;;;;;;;11.28;40.96;95177.91;4978565;28;20392;-79
2021/04/01 01:17:34;;;;;;;28.38;17.70;;;;;;;11.28;41.59;95177.91;4977602;28;20058;-82
2021/04/01 01:19:59;;;;;;;31.95;17.77;;;;;;;11.27;41.29;95176.31;4960571;28;20041;-82
2021/04/01 01:22:25;;;;;;;34.22;17.42;;;;;;;11.27;40.52;95178.91;4979296;28;20035;-81
2021/04/01 01:24:50;;;;;;;29.40;17.85;;;;;;;11.34;41.27;95174.38;4980347;28;20042;-81
2021/04/01 01:27:16;;;;;;;42.08;18.23;;;;;;;11.34;41.53;95176.97;4973333;28;20124;-82
2021/04/01 01:29:47;;;;;;;36.45;19.45;;;;;;;11.36;41.29;95174.16;4985629;28;20054;-79
2021/04/01 01:32:13;;;;;;;41.00;18.63;;;;;;;11.41;40.93;95166.47;4983919;28;20042;-81
2021/04/01 01:34:38;;;;;;;41.47;21.88;;;;;;;11.38;40.90;95156.47;4976953;28;20097;-80
2021/04/01 01:37:04;;;;;;;45.92;23.48;;;;;;;11.29;43.34;95158.66;4975135;28;20490;-80
2021/04/01 01:39:29;;;;;;;46.53;22.70;;;;;;;11.24;44.52;95145.53;4975787;28;20106;-80
2021/04/01 01:41:54;;;;;;;43.10;21.85;;;;;;;11.18;44.62;95140.44;4955480;28;20042;-81
2021/04/01 01:44:20;;;;;;;51.22;24.35;;;;;;;11.15;43.37;95146.88;4968883;28;20042;-81
2021/04/01 01:46:45;;;;;;;56.35;22.77;;;;;;;11.19;42.75;95137.59;4974260;28;20396;-81
2021/04/01 01:49:11;;;;;;;46.00;21.25;;;;;;;11.22;42.83;95136.34;4991632;23;20054;-81
2021/04/01 01:51:36;;;;;;;40.92;21.77;;;;;;;11.16;41.94;95138.06;5020518;28;20041;-80
2021/04/01 01:54:02;;;;;;;37.78;19.98;;;;;;;11.20;41.20;95133.97;5007249;28;20038;-80
2021/04/01 01:56:30;;;;;;;46.83;19.63;;;;;;;11.27;41.15;95136.47;4971573;28;20550;-81
2021/04/01 01:58:56;;;;;;;37.05;20.50;;;;;;;11.27;40.82;95131.28;4999010;28;20082;-82
2021/04/01 02:01:24;;;;;;;44.38;20.20;;;;;;;11.25;41.85;95115.88;4965169;28;20031;-81
2021/04/01 02:03:49;;;;;;;48.22;21.48;;;;;;;11.20;42.61;95101.94;4997061;28;20502;-81
2021/04/01 02:06:17;;;;;;;45.17;21.50;;;;;;;11.19;42.97;95106.34;4965353;28;20034;-81
2021/04/01 02:08:43;;;;;;;47.95;22.30;;;;;;;11.06;42.79;95104.00;4980865;28;20481;-81
2021/04/01 02:11:08;;;;;;;66.18;25.98;;;;;;;11.01;42.71;95099.47;4979263;28;20042;-81
2021/04/01 02:13:34;;;;;;;41.25;21.65;;;;;;;10.99;43.41;95111.13;5012991;23;20510;-79
2021/04/01 02:16:00;;;;;;;37.70;18.88;;;;;;;11.02;41.94;95113.28;4975755;28;20165;-81
2021/04/01 02:18:29;;;;;;;46.03;18.00;;;;;;;11.05;41.81;95116.22;4976200;28;20042;-82
2021/04/01 02:20:58;;;;;;;27.80;14.05;;;;;;;10.95;41.58;95123.00;4978439;28;20109;-82
2021/04/01 02:23:31;;;;;;;26.30;12.07;;;;;;;10.72;41.35;95119.38;4964527;28;20034;-82
2021/04/01 02:25:57;;;;;;;24.90;11.95;;;;;;;10.47;41.74;95123.97;4960289;28;20066;-82
2021/04/01 02:28:24;;;;;;;17.48;11.25;;;;;;;10.34;42.12;95126.75;4976394;28;20466;-82
2021/04/01 02:30:51;;;;;;;21.88;12.85;;;;;;;10.31;43.25;95135.00;4977356;28;20054;-82
2021/04/01 02:33:19;;;;;;;22.15;14.00;;;;;;;10.25;43.64;95135.88;4975534;28;20129;-82
2021/04/01 02:35:44;;;;;;;29.75;16.45;;;;;;;10.21;44.42;95140.72;4958541;28;20031;-82
2021/04/01 02:38:10;;;;;;;35.30;16.77;;;;;;;10.08;45.40;95138.28;4975490;28;20035;-82
2021/04/01 02:40:35;;;;;;;28.10;17.30;;;;;;;9.83;46.39;95146.19;4976435;28;20080;-82
2021/04/01 02:43:01;;;;;;;31.42;16.58;;;;;;;9.74;46.61;95150.09;4996734;23;20035;-82
2021/04/01 02:45:27;;;;;;;32.97;16.45;;;;;;;9.76;46.23;95159.28;4958172;28;20522;-82
2021/04/01 02:47:52;;;;;;;28.42;15.15;;;;;;;9.72;47.15;95163.28;4938046;29;20028;-83
2021/04/01 02:50:18;;;;;;;21.35;14.13;;;;;;;9.64;47.00;95161.00;4949357;28;20027;-83
2021/04/01 02:52:43;;;;;;;22.20;13.57;;;;;;;9.56;47.61;95164.66;4947348;29;20059;-83
2021/04/01 02:55:19;;;;;;;26.63;13.77;;;;;;;9.65;47.46;95161.78;4938375;29;20050;-82
2021/04/01 02:57:44;;;;;;;27.60;14.55;;;;;;;9.74;47.48;95161.25;4979953;28;20051;-80
2021/04/01 03:00:13;;;;;;;27.27;14.75;;;;;;;9.83;47.08;95164.38;4964501;28;20565;-81
2021/04/01 03:02:42;;;;;;;22.30;14.65;;;;;;;9.87;46.71;95158.53;4964030;28;20491;-81
2021/04/01 03:05:10;;;;;;;25.08;14.65;;;;;;;9.95;46.43;95165.22;4965412;28;20118;-81
2021/04/01 03:07:36;;;;;;;23.80;14.45;;;;;;;10.06;47.22;95166.28;4973278;28;20686;-82
2021/04/01 03:10:06;;;;;;;23.95;15.10;;;;;;;10.10;47.17;95165.66;4969977;28;20095;-81
2021/04/01 03:12:32;;;;;;;26.08;15.00;;;;;;;10.13;46.88;95157.41;5048135;23;20055;-81
2021/04/01 03:14:57;;;;;;;29.10;14.90;;;;;;;10.26;46.57;95158.28;5006282;28;20039;-83
2021/04/01 03:17:23;;;;;;;20.15;14.88;;;;;;;10.19;46.87;95150.53;4981524;28;20030;-81
2021/04/01 03:19:49;;;;;;;37.20;17.05;;;;;;;10.32;46.81;95152.19;4985241;28;20558;-81
2021/04/01 03:22:14;;;;;;;39.78;18.52;;;;;;;10.38;46.28;95153.88;4950478;28;20045;-82
2021/04/01 03:24:40;;;;;;;27.85;16.90;;;;;;;10.42;45.43;95148.03;4973591;28;20043;-81
2021/04/01 03:27:07;;;;;;;30.20;17.05;;;;;;;10.32;45.90;95126.19;5039843;23;20031;31
2021/04/01 03:29:32;;;;;;;36.55;19.52;;;;;;;10.42;44.94;95126.47;4983342;28;20042;-83
2021/04/01 03:31:58;;;;;;;35.70;19.48;;;;;;;10.47;44.37;95122.16;4990910;28;20495;-79
2021/04/01 03:34:23;;;;;;;41.63;22.88;;;;;;;10.46;45.13;95127.59;4987244;28;20038;-80
2021/04/01 03:36:49;;;;;;;41.20;21.75;;;;;;;10.44;44.79;95127.03;4991270;23;20038;-83
2021/04/01 03:39:17;;;;;;;50.35;21.98;;;;;;;10.51;44.98;95119.91;4986428;28;20041;-82
2021/04/01 03:41:42;;;;;;;41.58;20.08;;;;;;;10.51;44.88;95119.91;4981967;28;20045;-83
2021/04/01 03:44:08;;;;;;;37.70;18.92;;;;;;;10.50;44.32;95123.53;4985234;28;20038;-83
2021/04/01 03:46:35;;;;;;;38.63;19.77;;;;;;;10.46;45.40;95127.59;4986238;28;20039;-83
2021/04/01 03:49:00;;;;;;;35.65;21.05;;;;;;;10.49;44.30;95129.75;5014263;23;20106;-83
2021/04/01 03:51:26;;;;;;;37.13;18.67;;;;;;;10.56;44.47;95138.22;4994255;28;20038;-83
2021/04/01 03:53:51;;;;;;;50.40;19.15;;;;;;;10.51;45.01;95130.31;5024813;23;21228;-83
2021/04/01 03:56:17;;;;;;;48.80;22.88;;;;;;;10.57;45.30;95126.00;4995302;28;20037;-83
2021/04/01 03:58:57;;;;;;;41.03;20.25;;;;;;;10.51;43.99;95133.69;4977151;28;20037;-83
2021/04/01 04:09:29;;;;;;;32.03;13.77;;;;;;;10.63;43.36;95133.72;5006676;28;20097;-82
2021/04/01 04:17:24;;;;;;;31.33;15.40;;;;;;;10.64;43.94;95130.09;4991499;28;20038;-81
2021/04/01 04:19:49;;;;;;;27.00;15.00;;;;;;;10.68;43.60;95133.84;4957924;28;20480;-82
2021/04/01 04:22:15;;;;;;;36.92;15.85;;;;;;;10.72;43.84;95134.97;4995185;28;20038;-82
2021/04/01 04:24:55;;;;;;;24.90;14.43;;;;;;;10.74;43.89;95135.56;4991099;28;20459;-83
2021/04/01 04:30:05;;;;;;;29.17;13.57;;;;;;;10.78;42.76;95141.91;4961187;28;20427;-83
2021/04/01 04:32:32;;;;;;;37.95;14.18;;;;;;;10.79;43.33;95138.28;5131455;23;20038;-82
2021/04/01 04:34:57;;;;;;;44.92;14.88;;;;;;;10.77;43.79;95140.31;5007527;28;20497;-82
2021/04/01 04:37:23;;;;;;;26.05;13.88;;;;;;;10.78;44.10;95151.50;5003559;28;20037;-83
2021/04/01 04:39:48;;;;;;;29.83;12.00;;;;;;;10.70;42.65;95155.22;5006921;28;20487;-81
2021/04/01 04:42:14;;;;;;;39.15;14.15;;;;;;;10.72;42.33;95153.16;4982403;28;20030;-82
2021/04/01 04:44:39;;;;;;;30.35;14.38;;;;;;;10.72;42.57;95158.38;4970493;23;20062;-82
2021/04/01 04:47:05;;;;;;;27.77;14.32;;;;;;;10.77;43.04;95155.91;4977527;28;20470;-82
2021/04/01 04:49:30;;;;;;;32.33;14.57;;;;;;;10.77;42.81;95163.72;4965812;28;20034;-80
2021/04/01 04:51:56;;;;;;;33.85;14.43;;;;;;;10.65;43.30;95168.09;4972161;28;20033;-80
2021/04/01 04:54:21;;;;;;;37.42;15.18;;;;;;;10.69;43.32;95166.63;4965535;28;20042;-82
2021/04/01 04:56:48;;;;;;;36.00;14.60;;;;;;;10.81;42.85;95170.06;4984566;28;20035;-81
2021/04/01 04:59:34;;;;;;;26.92;14.50;;;;;;;10.68;42.92;95172.84;4945766;28;20419;-83
2021/04/01 05:04:51;;;;;;;19.98;13.00;;;;;;;10.63;42.62;95179.75;4979177;28;20049;-83
2021/04/01 05:07:16;;;;;;;35.83;13.90;;;;;;;10.73;42.13;95179.97;4977434;28;20023;-82
2021/04/01 05:09:42;;;;;;;29.42;14.27;;;;;;;10.79;42.10;95192.91;4973392;28;20121;-83
2021/04/01 05:12:08;;;;;;;43.78;14.43;;;;;;;10.71;41.97;95187.22;4958448;28;20383;-83
2021/04/01 05:14:37;;;;;;;21.63;11.60;;;;;;;10.66;41.42;95190.50;4993726;23;20049;-79
2021/04/01 05:17:02;;;;;;;29.15;13.10;;;;;;;10.68;41.25;95193.66;4996489;28;20049;-83
2021/04/01 05:19:30;;;;;;;23.52;10.73;;;;;;;10.74;40.76;95187.59;4986912;28;20499;-83
2021/04/01 05:24:21;;;;;;;30.90;10.60;;;;;;;10.91;39.83;95192.13;4973375;28;20037;-83
2021/04/01 05:32:09;;;;;;;27.60;11.15;;;;;;;10.99;39.54;95195.19;4983303;28;20073;-80
2021/04/01 05:34:37;;;;;;;27.50;10.98;;;;;;;11.15;38.50;95192.94;4986697;28;20519;-81
2021/04/01 05:37:03;;;;;;;23.75;11.20;;;;;;;11.16;39.21;95192.72;4985563;28;20091;-82
2021/04/01 05:39:33;;;;;;;23.92;10.40;;;;;;;11.28;38.31;95198.72;4983664;28;20596;-81
2021/04/01 05:41:59;;;;;;;21.95;10.55;;;;;;;11.29;37.99;95195.09;4985014;28;20117;-82
2021/04/01 05:44:31;;;;;;;26.83;10.48;;;;;;;11.30;37.66;95196.69;4993078;28;20049;-81
2021/04/01 06:03:18;;;;;;;22.30;11.27;;;;;;;12.11;36.75;95199.44;5000101;28;20037;-78
2021/04/01 06:05:45;;;;;;;25.85;11.90;;;;;;;12.21;35.92;95202.25;4986091;28;20046;-79
2021/04/01 06:08:16;;;;;;;29.65;11.82;;;;;;;12.29;35.91;95205.25;4982382;28;20495;-81
2021/04/01 06:10:42;;;;;;;38.65;12.63;;;;;;;12.51;35.53;95192.34;4953632;28;20137;-78
2021/04/01 06:13:13;;;;;;;39.65;12.65;;;;;;;12.70;35.66;95207.81;4982769;28;20680;-81
2021/04/01 06:15:41;;;;;;;38.80;12.73;;;;;;;13.02;35.60;95201.06;4984533;28;20038;-79
2021/04/01 06:18:11;;;;;;;36.92;14.00;;;;;;;13.49;34.38;95204.13;4991426;28;20034;-80
2021/04/01 06:20:38;;;;;;;19.23;12.43;;;;;;;14.11;33.90;95205.72;4985088;28;20026;-82
2021/04/01 06:23:03;;;;;;;30.05;12.60;;;;;;;14.32;32.85;95207.53;4953115;28;20034;-81
2021/04/01 06:25:33;;;;;;;22.77;12.82;;;;;;;14.06;32.36;95208.28;4982461;28;20058;-81
2021/04/01 06:27:58;;;;;;;22.48;14.00;;;;;;;14.47;32.54;95211.38;4986747;28;20561;-81
2021/04/01 06:33:12;;;;;;;21.20;12.77;;;;;;;14.84;31.80;95214.91;4985643;28;20043;-82
2021/04/01 06:35:46;;;;;;;21.02;13.27;;;;;;;14.53;32.05;95218.25;4967909;28;20046;-79
2021/04/01 06:40:49;;;;;;;26.20;13.38;;;;;;;14.92;32.20;95214.44;4973811;28;20490;-80
2021/04/01 06:43:17;;;;;;;28.65;15.10;;;;;;;15.28;31.47;95210.25;4959661;28;20453;-82
2021/04/01 06:45:46;;;;;;;22.77;13.65;;;;;;;15.80;30.76;95206.19;4981978;28;20077;-80
2021/04/01 06:48:17;;;;;;;27.75;14.93;;;;;;;15.67;31.05;95209.25;4968042;28;20041;-82
2021/04/01 06:50:43;;;;;;;27.85;14.90;;;;;;;15.48;31.17;95209.63;4956320;28;20041;-82
2021/04/01 06:53:15;;;;;;;28.77;14.77;;;;;;;15.66;31.15;95218.16;4983649;28;20042;-79
2021/04/01 06:55:47;;;;;;;28.95;14.52;;;;;;;14.97;32.70;95224.19;4985248;28;20030;-78
2021/04/01 06:58:30;;;;;;;25.23;15.02;;;;;;;14.68;33.69;95221.03;4989086;28;20038;-78
2021/04/01 07:01:06;;;;;;;26.35;14.63;;;;;;;14.97;33.34;95224.97;4969107;28;20037;-77
2021/04/01 07:03:41;;;;;;;18.58;13.80;;;;;;;14.79;34.19;95220.06;4967380;28;20030;-84
2021/04/01 07:06:19;;;;;;;18.50;12.98;;;;;;;14.63;34.26;95219.13;4968267;28;20498;-80
2021/04/01 07:09:02;;;;;;;23.55;14.00;;;;;;;14.86;34.19;95223.28;4969406;28;20034;-80
2021/04/01 07:14:08;;;;;;;18.65;13.38;;;;;;;14.88;33.78;95225.66;4986513;28;20066;-79
2021/04/01 07:16:43;;;;;;;20.55;13.68;;;;;;;14.69;34.71;95223.41;4968621;28;20035;-82
2021/04/01 07:35:47;;;;;;;20.83;13.02;;;;;;;16.11;32.42;95236.78;4985426;28;20041;-86
2021/04/01 07:44:46;;;;;;;26.83;13.18;;;;;;;16.32;32.12;95228.97;4986418;28;20044;-80
2021/04/01 07:46:37;;;;;;;17.02;11.90;;;;;;;16.53;31.88;95238.47;4990982;28;20065;-83
2021/04/01 07:49:04;;;;;;;19.45;12.40;;;;;;;16.83;31.59;95227.31;4972531;28;20045;-82
2021/04/01 07:54:07;;;;;;;14.85;11.30;;;;;;;17.30;31.14;95221.03;4966808;28;20038;-81
2021/04/01 07:56:38;;;;;;;21.23;13.25;;;;;;;17.25;31.26;95237.59;4970792;28;20027;-83
2021/04/01 08:04:16;;;;;;;24.88;12.00;;;;;;;16.74;32.02;95232.25;4986675;28;20047;-81
2021/04/01 08:06:43;;;;;;;18.15;11.50;;;;;;;17.03;32.02;95223.91;4975859;28;20045;-82
2021/04/01 08:09:09;;;;;;;19.77;11.82;;;;;;;17.17;31.72;95227.59;4993644;23;20521;-82
2021/04/01 08:11:43;;;;;;;29.63;12.52;;;;;;;16.87;32.60;95230.19;4994613;28;20034;-81
2021/04/01 08:14:32;;;;;;;18.38;12.20;;;;;;;17.15;32.57;95229.69;4980002;28;20038;-81
2021/04/01 08:17:03;;;;;;;16.55;12.20;;;;;;;17.31;31.58;95233.91;4995901;28;20415;-81
2021/04/01 08:19:30;;;;;;;16.58;12.00;;;;;;;17.50;31.41;95234.16;4996172;28;20138;-83
2021/04/01 08:21:59;;;;;;;19.42;11.55;;;;;;;17.42;31.43;95232.06;4979302;28;20041;-80
2021/04/01 08:24:29;;;;;;;18.77;10.98;;;;;;;17.09;31.79;95236.00;4979517;28;20042;-80
2021/04/01 08:29:47;;;;;;;16.00;10.93;;;;;;;16.99;32.26;95222.84;4992361;28;20077;-83
2021/04/01 08:34:42;;;;;;;19.33;9.95;;;;;;;17.35;31.62;95221.81;4979506;28;20182;-82
2021/04/01 08:37:09;;;;;;;11.85;9.70;;;;;;;17.48;31.40;95215.22;4993810;28;20050;-82
2021/04/01 08:39:36;;;;;;;18.67;9.35;;;;;;;17.64;31.02;95210.75;4980226;28;20122;-82
2021/04/01 08:42:14;;;;;;;11.88;9.05;;;;;;;17.56;31.11;95206.78;4963070;28;20038;-82
2021/04/01 08:45:10;;;;;;;13.52;10.15;;;;;;;17.27;31.15;95211.84;4993424;28;20073;-80
2021/04/01 08:47:45;;;;;;;18.90;9.75;;;;;;;17.20;31.50;95202.63;4991595;28;20055;-83
2021/04/01 08:50:27;;;;;;;10.82;7.75;;;;;;;17.00;31.41;95198.94;4996477;28;20414;-79
2021/04/01 08:53:31;;;;;;;12.60;8.23;;;;;;;16.23;32.89;95201.63;4981882;28;20056;-82
2021/04/01 08:56:31;;;;;;;10.23;7.38;;;;;;;16.25;32.85;95205.56;4993200;28;20041;-84
2021/04/01 08:59:23;;;;;;;13.63;7.43;;;;;;;16.06;32.68;95200.00;4991466;28;20113;-83
2021/04/01 09:01:50;;;;;;;15.00;8.53;;;;;;;16.09;32.75;95207.34;4994762;28;20049;-81
2021/04/01 09:04:21;;;;;;;10.73;7.45;;;;;;;16.40;32.49;95199.59;4992004;28;20485;-80
2021/04/01 09:06:47;;;;;;;18.90;8.02;;;;;;;16.33;32.16;95199.06;4995701;28;20085;-79
2021/04/01 09:09:15;;;;;;;11.50;8.50;;;;;;;16.38;32.26;95193.81;5006712;28;20490;-79
2021/04/01 09:14:19;;;;;;;11.18;7.05;;;;;;;16.60;31.98;95181.28;4978425;28;20037;-80
2021/04/01 09:17:14;;;;;;;10.27;7.57;;;;;;;16.65;31.14;95186.53;4979257;28;20044;-80
2021/04/01 09:19:41;;;;;;;10.05;6.60;;;;;;;16.70;30.59;95175.28;4977453;28;20039;-84
2021/04/01 09:22:26;;;;;;;11.57;8.30;;;;;;;16.41;31.61;95183.59;4978108;28;20505;-84
2021/04/01 09:25:03;;;;;;;14.65;7.10;;;;;;;16.27;31.04;95179.91;4993670;28;20037;-83
2021/04/01 09:27:28;;;;;;;33.95;6.93;;;;;;;16.25;31.60;95181.16;4978543;28;20521;-83
2021/04/01 09:30:21;;;;;;;11.57;6.90;;;;;;;16.45;31.13;95168.13;4995000;28;20035;-85
2021/04/01 09:32:47;;;;;;;12.77;7.18;;;;;;;16.71;30.94;95169.75;4995538;28;20636;-80
2021/04/01 09:35:13;;;;;;;11.57;7.28;;;;;;;16.85;30.18;95166.63;4996832;28;20078;-81
2021/04/01 09:40:12;;;;;;;18.40;8.32;;;;;;;16.94;30.60;95162.44;5040947;23;20050;-79
2021/04/01 09:42:45;;;;;;;12.85;7.63;;;;;;;17.02;29.95;95160.06;4986266;28;20128;-79
2021/04/01 09:45:14;;;;;;;8.13;5.78;;;;;;;16.83;29.19;95161.63;4983085;28;20471;-79
2021/04/01 09:47:49;;;;;;;8.77;5.90;;;;;;;16.56;29.35;95151.31;4992271;28;20030;-78
2021/04/01 09:50:15;;;;;;;12.20;6.43;;;;;;;16.49;29.82;95159.47;5067794;23;20045;-78
2021/04/01 09:52:40;;;;;;;8.60;5.78;;;;;;;16.39;28.68;95148.16;5009719;28;20053;-78
2021/04/01 09:55:12;;;;;;;9.63;6.15;;;;;;;16.06;28.99;95144.13;5007226;28;20056;-79
2021/04/01 09:57:48;;;;;;;6.93;5.60;;;;;;;16.20;29.07;95148.63;5003724;28;20030;-80
2021/04/01 10:00:31;;;;;;;6.95;6.25;;;;;;;16.24;28.84;95129.75;5007062;28;20068;-82
2021/04/01 10:03:21;;;;;;;7.50;5.93;;;;;;;16.32;29.31;95130.03;5002382;28;20034;-82
2021/04/01 10:05:47;;;;;;;9.50;5.60;;;;;;;16.10;28.88;95135.47;4989605;28;20030;-79
2021/04/01 10:08:30;;;;;;;11.35;6.05;;;;;;;16.20;29.38;95119.78;5007617;28;20049;-81
2021/04/01 10:11:03;;;;;;;7.53;5.10;;;;;;;16.35;29.44;95115.59;4988790;28;20058;-79
2021/04/01 10:13:29;;;;;;;8.77;5.32;;;;;;;16.34;28.99;95090.41;5066755;23;20179;-80
2021/04/01 10:15:57;;;;;;;12.38;5.38;;;;;;;16.42;28.95;95116.91;4972814;28;20027;-80
2021/04/01 10:18:28;;;;;;;5.55;4.95;;;;;;;16.17;28.96;95115.03;4975208;28;20045;-81
2021/04/01 10:21:05;;;;;;;8.17;6.13;;;;;;;16.26;29.10;95111.91;4977143;28;20038;-81
2021/04/01 10:24:05;;;;;;;15.25;5.68;;;;;;;16.26;28.81;95101.41;4975041;28;20038;-81
2021/04/01 10:26:37;;;;;;;10.63;4.85;;;;;;;16.35;28.35;95102.47;4987716;28;20035;-81
2021/04/01 10:29:30;;;;;;;11.55;5.15;;;;;;;16.46;28.51;95107.50;4976423;28;20038;-81
2021/04/01 10:31:50;;;;;;;10.05;4.88;;;;;;;16.57;28.59;95100.41;4976410;28;20054;-82
2021/04/01 10:34:33;;;;;;;6.65;5.20;;;;;;;16.69;29.49;95093.09;4973666;28;20047;-81
2021/04/01 10:37:00;;;;;;;12.93;6.50;;;;;;;16.79;29.62;95093.09;4975506;28;20046;-77
2021/04/01 10:39:31;;;;;;;17.15;5.50;;;;;;;16.80;28.49;95094.66;4984343;28;20095;-78
2021/04/01 10:41:57;;;;;;;8.32;5.70;;;;;;;16.90;28.23;95083.34;4979147;28;20035;-76
2021/04/01 10:44:23;;;;;;;6.05;4.65;;;;;;;16.96;27.71;95089.41;4984612;28;20455;-77
2021/04/01 10:46:51;;;;;;;8.57;5.72;;;;;;;16.74;26.80;95076.53;4973782;28;20057;-80
2021/04/01 10:49:23;;;;;;;5.75;4.70;;;;;;;16.85;26.54;95069.44;4972328;28;20046;-77
2021/04/01 10:51:51;;;;;;;16.35;7.50;;;;;;;16.95;27.32;95059.72;4943764;28;20130;-80
2021/04/01 10:54:16;;;;;;;11.60;5.60;;;;;;;17.01;26.63;95065.75;4957054;28;20090;-75
2021/04/01 10:56:55;;;;;;;11.93;6.65;;;;;;;17.09;27.71;95068.63;4956046;28;20109;-78
2021/04/01 10:59:32;;;;;;;8.27;5.13;;;;;;;16.82;26.62;95077.84;4972044;28;20113;-79
2021/04/01 11:01:59;;;;;;;10.20;5.15;;;;;;;16.61;27.29;95082.31;4972631;28;20042;-77
2021/04/01 11:04:24;;;;;;;6.13;5.47;;;;;;;16.57;27.17;95063.63;4972849;28;20027;-78
2021/04/01 11:06:50;;;;;;;7.38;4.30;;;;;;;16.70;27.93;95057.91;4977953;28;20089;-78
2021/04/01 11:09:15;;;;;;;6.50;5.38;;;;;;;16.85;27.69;95058.94;4960662;28;20071;-79
2021/04/01 11:12:08;;;;;;;9.60;4.80;;;;;;;16.95;27.59;95053.69;4954872;28;20491;-79
2021/04/01 11:14:26;;;;;;;9.85;4.75;;;;;;;17.02;26.47;95051.56;4957675;28;20125;-79
2021/04/01 11:16:52;;;;;;;10.25;5.05;;;;;;;16.76;26.01;95050.81;4973542;28;20091;-79
2021/04/01 11:19:18;;;;;;;6.45;5.15;;;;;;;16.77;26.05;95039.25;4972132;28;20027;-82
2021/04/01 11:21:45;;;;;;;7.82;5.47;;;;;;;16.61;26.14;95035.03;4957780;28;20125;-79
2021/04/01 11:24:11;;;;;;;11.95;4.65;;;;;;;16.69;26.03;95035.31;4975694;28;20046;-80
2021/04/01 11:26:36;;;;;;;10.35;4.43;;;;;;;16.57;25.83;95034.75;4958651;28;20491;-81
2021/04/01 11:29:02;;;;;;;6.47;4.50;;;;;;;16.65;25.39;95034.25;4975083;28;20031;-83
2021/04/01 11:31:30;;;;;;;6.13;4.13;;;;;;;16.74;25.19;95031.88;4957764;28;20487;-79
2021/04/01 11:34:00;;;;;;;10.15;4.47;;;;;;;16.78;24.23;95028.50;4976871;28;20070;-80
2021/04/01 11:36:28;;;;;;;8.27;4.40;;;;;;;16.93;24.89;95021.66;4979163;28;20038;-83
2021/04/01 11:38:58;;;;;;;9.90;3.72;;;;;;;16.97;24.63;95009.53;4953263;28;20031;-83
2021/04/01 11:41:26;;;;;;;7.47;4.32;;;;;;;17.11;24.70;95005.31;4981240;28;20447;-81
2021/04/01 11:43:52;;;;;;;7.60;4.45;;;;;;;16.98;24.33;95011.13;4973164;28;20117;-78
2021/04/01 11:46:18;;;;;;;11.20;5.07;;;;;;;16.83;24.80;95008.50;4957308;28;20043;-79
2021/04/01 11:48:44;;;;;;;13.13;4.80;;;;;;;16.59;24.44;95005.63;4967046;28;20086;-78
2021/04/01 11:51:26;;;;;;;8.07;4.35;;;;;;;16.39;24.22;95004.59;4984615;28;20031;-78
2021/04/01 11:53:52;;;;;;;6.55;4.47;;;;;;;16.30;24.65;95005.38;4954383;28;20647;-79
2021/04/01 11:56:22;;;;;;;11.25;4.57;;;;;;;16.49;24.71;95004.59;4975517;28;20102;-78
2021/04/01 11:58:47;;;;;;;6.22;4.43;;;;;;;16.63;24.49;95002.22;4974897;28;20121;-78
2021/04/01 12:01:29;;;;;;;8.48;5.25;;;;;;;16.41;24.58;95001.69;4956236;28;20054;-77
2021/04/01 12:04:07;;;;;;;7.32;4.95;;;;;;;16.44;24.72;95001.19;4973763;28;20030;-81
2021/04/01 12:06:33;;;;;;;14.60;4.75;;;;;;;16.54;24.25;94997.75;4945968;28;20050;-80
2021/04/01 12:08:59;;;;;;;6.95;4.82;;;;;;;16.62;23.83;94986.72;4956929;28;20039;-79
2021/04/01 12:11:25;;;;;;;7.28;4.65;;;;;;;16.75;24.06;94975.69;4974315;28;20054;-79
2021/04/01 12:13:51;;;;;;;13.18;4.47;;;;;;;16.86;24.83;94976.47;4971614;28;20035;-78
2021/04/01 12:16:21;;;;;;;14.48;4.72;;;;;;;16.97;24.16;94975.38;4956467;28;20046;-79
2021/04/01 12:18:49;;;;;;;5.22;4.32;;;;;;;17.07;24.16;94970.09;4972812;28;20118;-78
2021/04/01 12:21:15;;;;;;;16.02;4.97;;;;;;;17.12;23.71;94964.84;4971628;28;20110;-78
2021/04/01 12:23:45;;;;;;;10.65;5.05;;;;;;;17.22;23.91;94959.53;4974421;28;20121;-80
2021/04/01 12:26:13;;;;;;;11.50;5.32;;;;;;;17.30;23.72;94956.34;4981523;28;20054;-79
2021/04/01 12:28:39;;;;;;;12.50;4.72;;;;;;;17.37;22.78;94951.56;4977889;28;20045;-83
2021/04/01 12:31:11;;;;;;;4.90;4.20;;;;;;;17.40;22.54;94942.34;4964553;28;20034;-77
2021/04/01 12:33:47;;;;;;;8.98;4.30;;;;;;;17.35;22.60;94951.06;4981782;28;20125;-78
2021/04/01 12:36:12;;;;;;;21.42;4.75;;;;;;;17.31;22.33;94939.53;4990763;28;20035;-78
2021/04/01 12:38:39;;;;;;;7.70;4.30;;;;;;;17.30;22.00;94942.41;4955824;28;20035;-79
2021/04/01 12:41:09;;;;;;;4.18;3.70;;;;;;;16.87;22.72;94942.03;4975983;28;20114;-85
2021/04/01 12:43:36;;;;;;;9.48;4.35;;;;;;;16.80;23.28;94947.59;4973519;28;20054;-84
2021/04/01 12:46:02;;;;;;;9.18;3.80;;;;;;;16.66;22.42;94938.66;4977307;28;20034;-87
2021/04/01 12:48:43;;;;;;;8.40;3.90;;;;;;;16.20;23.52;94940.56;4964188;28;20034;-81
2021/04/01 12:51:10;;;;;;;6.95;3.83;;;;;;;16.31;22.88;94936.09;4978074;28;20061;-86
2021/04/01 12:53:35;;;;;;;7.22;4.07;;;;;;;16.32;23.01;94935.06;4970541;28;20062;-82
2021/04/01 12:58:46;;;;;;;9.52;5.00;;;;;;;15.98;23.13;94938.22;4974787;28;20499;-78
2021/04/01 13:01:40;;;;;;;7.32;4.78;;;;;;;15.97;23.27;94922.75;4976348;28;20104;-80
2021/04/01 13:04:09;;;;;;;10.82;4.20;;;;;;;15.98;23.00;94924.31;4977302;28;20049;-79
2021/04/01 13:09:24;;;;;;;13.05;4.50;;;;;;;16.03;22.87;94916.44;4971622;28;20419;-82